sensor_id;sensor_type;location;lat;lon;timestamp;pressure;altitude;pressure_sealevel;temperature;humidity
16100;BME280;8154;50.830;12.082;2023-02-19T01:48:50;99248.25;;;25.88;30.65
16100;BME280;8154;50.830;12.082;2023-02-19T01:51:19;99238.38;;;25.89;30.77
16100;BME280;8154;50.830;12.082;2023-02-19T01:53:53;99245.56;;;25.88;30.75
16100;BME280;8154;50.830;12.082;2023-02-19T01:56:22;99239.41;;;25.88;30.97
16100;BME280;8154;50.830;12.082;2023-02-19T01:58:51;99229.50;;;25.88;30.65
16100;BME280;8154;50.830;12.082;2023-02-19T02:01:18;99221.47;;;25.88;31.10
16100;BME280;8154;50.830;12.082;2023-02-19T02:03:48;99220.47;;;25.90;30.70
16100;BME280;8154;50.830;12.082;2023-02-19T02:08:45;99216.13;;;25.88;30.91
16100;BME280;8154;50.830;12.082;2023-02-19T02:11:31;99198.00;;;25.91;30.74
16100;BME280;8154;50.830;12.082;2023-02-19T02:13:57;99216.13;;;25.88;30.93
16100;BME280;8154;50.830;12.082;2023-02-19T02:17:19;99218.56;;;25.90;30.87
16100;BME280;8154;50.830;12.082;2023-02-19T02:22:37;99194.47;;;25.90;30.68
16100;BME280;8154;50.830;12.082;2023-02-19T02:31:13;99185.44;;;25.91;30.92
16100;BME280;8154;50.830;12.082;2023-02-19T02:34:12;99179.47;;;25.89;30.95
16100;BME280;8154;50.830;12.082;2023-02-19T02:36:42;99189.34;;;25.88;30.78
16100;BME280;8154;50.830;12.082;2023-02-19T02:39:14;99186.88;;;25.87;30.83
16100;BME280;8154;50.830;12.082;2023-02-19T02:41:43;99180.50;;;25.88;30.59
16100;BME280;8154;50.830;12.082;2023-02-19T02:44:10;99180.50;;;25.88;30.83
16100;BME280;8154;50.830;12.082;2023-02-19T02:46:39;99162.56;;;25.88;30.78
16100;BME280;8154;50.830;12.082;2023-02-19T03:55:17;99117.66;;;25.91;30.92
16100;BME280;8154;50.830;12.082;2023-02-19T04:00:47;99126.31;;;25.93;30.84
16100;BME280;8154;50.830;12.082;2023-02-19T04:03:35;99116.84;;;25.90;30.78
16100;BME280;8154;50.830;12.082;2023-02-19T04:06:09;99120.34;;;25.91;30.90
16100;BME280;8154;50.830;12.082;2023-02-19T04:08:37;99117.06;;;25.88;30.53
16100;BME280;8154;50.830;12.082;2023-02-19T04:11:05;99112.53;;;25.89;30.80
16100;BME280;8154;50.830;12.082;2023-02-19T04:13:36;99113.94;;;25.92;30.59
16100;BME280;8154;50.830;12.082;2023-02-19T04:16:10;99118.50;;;25.91;30.55
16100;BME280;8154;50.830;12.082;2023-02-19T04:18:42;99110.47;;;25.91;30.67
16100;BME280;8154;50.830;12.082;2023-02-19T04:21:09;99113.34;;;25.90;30.90
16100;BME280;8154;50.830;12.082;2023-02-19T04:23:40;99108.00;;;25.90;30.66
16100;BME280;8154;50.830;12.082;2023-02-19T04:26:09;99127.53;;;25.90;30.68
16100;BME280;8154;50.830;12.082;2023-02-19T04:28:37;99121.97;;;25.92;30.58
16100;BME280;8154;50.830;12.082;2023-02-19T04:31:04;99117.66;;;25.91;30.92
16100;BME280;8154;50.830;12.082;2023-02-19T04:33:31;99117.66;;;25.91;30.64
16100;BME280;8154;50.830;12.082;2023-02-19T04:35:57;99120.34;;;25.91;30.60
16100;BME280;8154;50.830;12.082;2023-02-19T04:38:24;99130.00;;;25.92;30.77
16100;BME280;8154;50.830;12.082;2023-02-19T04:40:50;99130.00;;;25.92;30.75
16100;BME280;8154;50.830;12.082;2023-02-19T04:43:17;99126.97;;;25.88;30.74
16100;BME280;8154;50.830;12.082;2023-02-19T04:45:43;99125.69;;;25.91;30.85
16100;BME280;8154;50.830;12.082;2023-02-19T04:48:11;99137.44;;;25.90;30.87
16100;BME280;8154;50.830;12.082;2023-02-19T04:50:37;99124.28;;;25.88;30.90
16100;BME280;8154;50.830;12.082;2023-02-19T04:53:05;99128.38;;;25.91;30.97
16100;BME280;8154;50.830;12.082;2023-02-19T04:55:31;99117.44;;;25.92;30.87
16100;BME280;8154;50.830;12.082;2023-02-19T07:00:26;99277.25;;;25.98;30.76
16100;BME280;8154;50.830;12.082;2023-02-19T07:02:52;99282.41;;;26.00;30.90
16100;BME280;8154;50.830;12.082;2023-02-19T07:05:21;99293.94;;;26.00;30.69
16100;BME280;8154;50.830;12.082;2023-02-19T07:07:48;99295.38;;;26.03;30.54
16100;BME280;8154;50.830;12.082;2023-02-19T07:10:15;99301.56;;;26.03;30.79
16100;BME280;8154;50.830;12.082;2023-02-19T07:12:41;99290.22;;;26.01;30.71
16100;BME280;8154;50.830;12.082;2023-02-19T07:15:07;99296.81;;;25.99;30.67
16100;BME280;8154;50.830;12.082;2023-02-19T07:17:34;99301.56;;;25.97;30.95
16100;BME280;8154;50.830;12.082;2023-02-19T07:20:00;99304.66;;;26.00;30.66
16100;BME280;8154;50.830;12.082;2023-02-19T07:22:27;99303.63;;;26.01;30.71
16100;BME280;8154;50.830;12.082;2023-02-19T07:24:53;99307.13;;;26.02;30.72
16100;BME280;8154;50.830;12.082;2023-02-19T07:27:19;99314.13;;;26.03;30.76
16100;BME280;8154;50.830;12.082;2023-02-19T07:29:45;99325.66;;;26.03;30.68
16100;BME280;8154;50.830;12.082;2023-02-19T07:32:11;99328.13;;;26.05;30.79
16100;BME280;8154;50.830;12.082;2023-02-19T07:34:37;99342.34;;;26.05;30.91
16100;BME280;8154;50.830;12.082;2023-02-19T07:37:03;99333.69;;;26.03;30.40
16100;BME280;8154;50.830;12.082;2023-02-19T07:39:29;99343.56;;;26.03;30.87
16100;BME280;8154;50.830;12.082;2023-02-19T07:41:56;99342.53;;;26.04;30.67
16100;BME280;8154;50.830;12.082;2023-02-19T07:44:22;99343.34;;;26.04;30.79
16100;BME280;8154;50.830;12.082;2023-02-19T07:46:48;99342.53;;;26.04;30.80
16100;BME280;8154;50.830;12.082;2023-02-19T07:49:14;99337.00;;;26.05;30.55
16100;BME280;8154;50.830;12.082;2023-02-19T07:51:40;99345.81;;;26.06;30.63
16100;BME280;8154;50.830;12.082;2023-02-19T07:54:08;99345.81;;;26.06;30.75
16100;BME280;8154;50.830;12.082;2023-02-19T07:56:34;99347.69;;;26.05;30.74
16100;BME280;8154;50.830;12.082;2023-02-19T07:59:00;99355.13;;;26.03;30.65
16100;BME280;8154;50.830;12.082;2023-02-19T08:01:26;99355.91;;;26.04;30.90
16100;BME280;8154;50.830;12.082;2023-02-19T08:04:13;99363.94;;;26.04;30.63
16100;BME280;8154;50.830;12.082;2023-02-19T08:06:40;99364.78;;;26.04;30.97
16100;BME280;8154;50.830;12.082;2023-02-19T08:09:06;99371.81;;;26.05;30.96
16100;BME280;8154;50.830;12.082;2023-02-19T08:11:34;99379.63;;;26.07;30.81
16100;BME280;8154;50.830;12.082;2023-02-19T08:14:18;99382.31;;;26.07;30.75
16100;BME280;8154;50.830;12.082;2023-02-19T08:16:52;99387.66;;;26.07;30.71
16100;BME280;8154;50.830;12.082;2023-02-19T08:19:18;99389.50;;;26.06;30.85
16100;BME280;8154;50.830;12.082;2023-02-19T08:21:44;99387.03;;;26.05;30.77
16100;BME280;8154;50.830;12.082;2023-02-19T08:24:10;99389.50;;;26.06;30.91
16100;BME280;8154;50.830;12.082;2023-02-19T08:26:37;99394.88;;;26.06;30.98
16100;BME280;8154;50.830;12.082;2023-02-19T08:29:04;99401.06;;;26.07;30.87
16100;BME280;8154;50.830;12.082;2023-02-19T08:31:31;99408.66;;;26.10;30.98
16100;BME280;8154;50.830;12.082;2023-02-19T08:33:57;99418.31;;;26.11;30.94
16100;BME280;8154;50.830;12.082;2023-02-19T08:36:23;99411.13;;;26.11;31.03
16100;BME280;8154;50.830;12.082;2023-02-19T08:38:49;99425.31;;;26.12;30.96
16100;BME280;8154;50.830;12.082;2023-02-19T08:41:15;99422.84;;;26.10;30.96
16100;BME280;8154;50.830;12.082;2023-02-19T08:43:42;99449.84;;;26.09;30.95
16100;BME280;8154;50.830;12.082;2023-02-19T08:46:09;99454.41;;;26.08;31.04
16100;BME280;8154;50.830;12.082;2023-02-19T08:48:37;99457.88;;;26.09;31.12
16100;BME280;8154;50.830;12.082;2023-02-19T08:51:06;99470.25;;;26.10;31.02
16100;BME280;8154;50.830;12.082;2023-02-19T08:53:34;99469.66;;;26.08;31.29
16100;BME280;8154;50.830;12.082;2023-02-19T08:56:05;99475.63;;;26.10;31.15
16100;BME280;8154;50.830;12.082;2023-02-19T08:58:32;99486.94;;;26.12;31.12
16100;BME280;8154;50.830;12.082;2023-02-19T09:00:57;99498.69;;;26.11;30.80
16100;BME280;8154;50.830;12.082;2023-02-19T09:03:23;99515.81;;;26.10;30.94
16100;BME280;8154;50.830;12.082;2023-02-19T09:05:50;99516.81;;;26.09;31.10
16100;BME280;8154;50.830;12.082;2023-02-19T09:08:17;99540.34;;;26.07;31.06
16100;BME280;8154;50.830;12.082;2023-02-19T09:10:44;99534.97;;;26.07;30.99
16100;BME280;8154;50.830;12.082;2023-02-19T09:13:10;99534.97;;;26.07;31.09
16100;BME280;8154;50.830;12.082;2023-02-19T09:15:37;99545.28;;;26.10;31.01
16100;BME280;8154;50.830;12.082;2023-02-19T09:18:03;99544.44;;;26.09;31.02
16100;BME280;8154;50.830;12.082;2023-02-19T09:20:29;99555.97;;;26.10;31.00
16100;BME280;8154;50.830;12.082;2023-02-19T09:22:57;99546.28;;;26.09;31.07
16100;BME280;8154;50.830;12.082;2023-02-19T09:25:24;99566.69;;;26.10;31.21
16100;BME280;8154;50.830;12.082;2023-02-19T09:27:54;99578.44;;;26.09;31.15
16100;BME280;8154;50.830;12.082;2023-02-19T09:30:20;99600.06;;;26.07;31.06
16100;BME280;8154;50.830;12.082;2023-02-19T09:32:46;99599.06;;;26.08;31.07
16100;BME280;8154;50.830;12.082;2023-02-19T09:35:13;99601.72;;;26.08;31.14
16100;BME280;8154;50.830;12.082;2023-02-19T09:37:41;99597.19;;;26.09;30.97
16100;BME280;8154;50.830;12.082;2023-02-19T09:40:08;99601.53;;;26.10;31.10
16100;BME280;8154;50.830;12.082;2023-02-19T09:42:34;99611.19;;;26.11;31.05
16100;BME280;8154;50.830;12.082;2023-02-19T09:45:00;99622.75;;;26.11;31.10
16100;BME280;8154;50.830;12.082;2023-02-19T09:47:30;99628.31;;;26.10;31.02
16100;BME280;8154;50.830;12.082;2023-02-19T09:50:08;99643.13;;;26.06;30.98
16100;BME280;8154;50.830;12.082;2023-02-19T09:52:50;99650.97;;;26.07;31.01
16100;BME280;8154;50.830;12.082;2023-02-19T09:55:34;99658.19;;;26.07;30.92
16100;BME280;8154;50.830;12.082;2023-02-19T10:00:41;99651.59;;;26.09;31.03
16100;BME280;8154;50.830;12.082;2023-02-19T10:03:15;99668.28;;;26.11;30.90
16100;BME280;8154;50.830;12.082;2023-02-19T10:05:45;99673.63;;;26.11;30.97
16100;BME280;8154;50.830;12.082;2023-02-19T10:08:16;99678.16;;;26.11;31.07
16100;BME280;8154;50.830;12.082;2023-02-19T10:10:43;99682.47;;;26.12;30.99
16100;BME280;8154;50.830;12.082;2023-02-19T10:13:32;99678.78;;;26.06;30.83
16100;BME280;8154;50.830;12.082;2023-02-19T10:16:00;99697.13;;;26.09;30.98
16100;BME280;8154;50.830;12.082;2023-02-19T10:18:36;99710.50;;;26.09;31.24
16100;BME280;8154;50.830;12.082;2023-02-19T10:21:02;99704.31;;;26.09;31.08
16100;BME280;8154;50.830;12.082;2023-02-19T10:23:29;99723.69;;;26.11;31.02
16100;BME280;8154;50.830;12.082;2023-02-19T10:25:56;99709.28;;;26.12;31.15
16100;BME280;8154;50.830;12.082;2023-02-19T10:28:32;99718.97;;;26.13;30.84
16100;BME280;8154;50.830;12.082;2023-02-19T10:31:01;99722.47;;;26.13;30.82
16100;BME280;8154;50.830;12.082;2023-02-19T10:33:27;99720.81;;;26.12;30.85
16100;BME280;8154;50.830;12.082;2023-02-19T10:36:27;99729.69;;;26.13;31.17
16100;BME280;8154;50.830;12.082;2023-02-19T10:38:55;99740.59;;;26.11;31.03
16100;BME280;8154;50.830;12.082;2023-02-19T10:41:23;99749.66;;;26.10;31.02
16100;BME280;8154;50.830;12.082;2023-02-19T10:46:30;99772.34;;;26.14;31.04
16100;BME280;8154;50.830;12.082;2023-02-19T10:49:03;99784.69;;;26.15;31.10
16100;BME280;8154;50.830;12.082;2023-02-19T10:51:38;99796.47;;;26.14;31.00
16100;BME280;8154;50.830;12.082;2023-02-19T10:54:18;99805.28;;;26.15;30.85
16100;BME280;8154;50.830;12.082;2023-02-19T10:56:45;99808.19;;;26.13;31.08
16100;BME280;8154;50.830;12.082;2023-02-19T11:02:07;99810.06;;;26.13;31.06
16100;BME280;8154;50.830;12.082;2023-02-19T12:06:10;99884.84;;;26.21;31.09
16100;BME280;8154;50.830;12.082;2023-02-19T12:16:43;99888.38;;;26.21;31.07
16100;BME280;8154;50.830;12.082;2023-02-19T12:22:30;99886.31;;;26.23;30.98
16100;BME280;8154;50.830;12.082;2023-02-19T12:30:36;99898.06;;;26.22;30.88
16100;BME280;8154;50.830;12.082;2023-02-19T12:38:44;99882.81;;;26.23;31.15
16100;BME280;8154;50.830;12.082;2023-02-19T12:41:58;99883.66;;;26.23;31.26
16100;BME280;8154;50.830;12.082;2023-02-19T12:44:25;99889.44;;;26.27;30.79
16100;BME280;8154;50.830;12.082;2023-02-19T12:46:59;99891.28;;;26.26;30.92
16100;BME280;8154;50.830;12.082;2023-02-19T12:49:39;99897.69;;;26.25;30.98
16100;BME280;8154;50.830;12.082;2023-02-19T12:52:13;99902.19;;;26.25;30.73
16100;BME280;8154;50.830;12.082;2023-02-19T12:54:45;99902.41;;;26.23;31.13
16100;BME280;8154;50.830;12.082;2023-02-19T12:57:25;99902.59;;;26.22;30.96
16100;BME280;8154;50.830;12.082;2023-02-19T12:59:59;99908.78;;;26.22;31.13
16100;BME280;8154;50.830;12.082;2023-02-19T13:02:43;99898.06;;;26.22;30.95
16100;BME280;8154;50.830;12.082;2023-02-19T13:08:14;99909.19;;;26.26;31.02
16100;BME280;8154;50.830;12.082;2023-02-19T13:10:49;99911.88;;;26.26;30.95
16100;BME280;8154;50.830;12.082;2023-02-19T13:13:23;99921.59;;;26.27;31.16
16100;BME280;8154;50.830;12.082;2023-02-19T13:15:55;99926.13;;;26.26;31.10
16100;BME280;8154;50.830;12.082;2023-02-19T13:18:33;99937.03;;;26.25;30.98
16100;BME280;8154;50.830;12.082;2023-02-19T13:21:02;99928.38;;;26.23;31.01
16100;BME280;8154;50.830;12.082;2023-02-19T13:23:35;99935.41;;;26.24;31.06
16100;BME280;8154;50.830;12.082;2023-02-19T13:32:17;99937.47;;;26.28;30.98
16100;BME280;8154;50.830;12.082;2023-02-19T13:37:39;99931.47;;;26.26;31.10
16100;BME280;8154;50.830;12.082;2023-02-19T13:42:55;99923.00;;;26.23;30.87
16100;BME280;8154;50.830;12.082;2023-02-19T13:45:41;99924.69;;;26.24;31.23
16100;BME280;8154;50.830;12.082;2023-02-19T13:48:23;99932.50;;;26.25;30.99
16100;BME280;8154;50.830;12.082;2023-02-19T14:04:19;99948.78;;;26.24;31.18
16100;BME280;8154;50.830;12.082;2023-02-19T16:06:54;100010.59;;;26.22;31.23
16100;BME280;8154;50.830;12.082;2023-02-19T16:09:26;100018.63;;;26.22;31.24
16100;BME280;8154;50.830;12.082;2023-02-19T16:11:54;100021.16;;;26.24;31.02
16100;BME280;8154;50.830;12.082;2023-02-19T16:19:28;100014.09;;;26.23;31.20
16100;BME280;8154;50.830;12.082;2023-02-19T16:21:56;100024.81;;;26.23;31.09
16100;BME280;8154;50.830;12.082;2023-02-19T16:24:30;100018.84;;;26.21;31.17
16100;BME280;8154;50.830;12.082;2023-02-19T16:26:57;100017.63;;;26.23;31.05
16100;BME280;8154;50.830;12.082;2023-02-19T16:29:29;100035.34;;;26.24;31.01
16100;BME280;8154;50.830;12.082;2023-02-19T16:32:01;100033.50;;;26.25;31.09
16100;BME280;8154;50.830;12.082;2023-02-19T16:34:41;100038.84;;;26.25;30.89
16100;BME280;8154;50.830;12.082;2023-02-19T16:37:30;100045.88;;;26.26;31.22
16100;BME280;8154;50.830;12.082;2023-02-19T16:45:25;100051.19;;;26.19;31.15
16100;BME280;8154;50.830;12.082;2023-02-19T16:47:52;100043.16;;;26.19;31.20
16100;BME280;8154;50.830;12.082;2023-02-19T16:50:22;100058.03;;;26.22;31.10
16100;BME280;8154;50.830;12.082;2023-02-19T16:52:54;100066.47;;;26.19;31.04
16100;BME280;8154;50.830;12.082;2023-02-19T16:55:21;100081.09;;;26.23;30.99
16100;BME280;8154;50.830;12.082;2023-02-19T16:57:48;100082.78;;;26.24;31.18
16100;BME280;8154;50.830;12.082;2023-02-19T17:00:25;100087.28;;;26.23;31.13
16100;BME280;8154;50.830;12.082;2023-02-19T17:02:56;100087.28;;;26.23;31.15
16100;BME280;8154;50.830;12.082;2023-02-19T17:05:26;100105.22;;;26.23;30.97
16100;BME280;8154;50.830;12.082;2023-02-19T17:07:54;100095.09;;;26.18;31.07
16100;BME280;8154;50.830;12.082;2023-02-19T17:10:22;100100.44;;;26.18;31.03
16100;BME280;8154;50.830;12.082;2023-02-19T17:12:53;100093.84;;;26.21;31.15
16100;BME280;8154;50.830;12.082;2023-02-19T17:15:20;100101.69;;;26.22;31.08
16100;BME280;8154;50.830;12.082;2023-02-19T17:17:46;100103.38;;;26.23;30.96
16100;BME280;8154;50.830;12.082;2023-02-19T17:22:42;100110.56;;;26.23;30.98
16100;BME280;8154;50.830;12.082;2023-02-19T17:25:08;100114.09;;;26.23;31.07
16100;BME280;8154;50.830;12.082;2023-02-19T17:27:34;100102.72;;;26.21;31.26
16100;BME280;8154;50.830;12.082;2023-02-19T17:30:01;100099.63;;;26.18;31.21
16100;BME280;8154;50.830;12.082;2023-02-19T17:32:27;100109.13;;;26.20;31.10
16100;BME280;8154;50.830;12.082;2023-02-19T17:34:54;100106.66;;;26.19;31.17
16100;BME280;8154;50.830;12.082;2023-02-19T17:37:19;100110.78;;;26.21;31.27
16100;BME280;8154;50.830;12.082;2023-02-19T17:39:45;100115.94;;;26.23;31.17
16100;BME280;8154;50.830;12.082;2023-02-19T17:42:11;100115.94;;;26.23;31.15
16100;BME280;8154;50.830;12.082;2023-02-19T17:44:37;100116.13;;;26.21;31.14
16100;BME280;8154;50.830;12.082;2023-02-19T17:47:03;100120.47;;;26.22;31.00
16100;BME280;8154;50.830;12.082;2023-02-19T17:49:29;100116.13;;;26.21;31.11
16100;BME280;8154;50.830;12.082;2023-02-19T17:51:56;100121.06;;;26.18;30.96
16100;BME280;8154;50.830;12.082;2023-02-19T17:54:27;100128.09;;;26.19;31.02
16100;BME280;8154;50.830;12.082;2023-02-19T17:56:53;100136.13;;;26.19;31.19
16100;BME280;8154;50.830;12.082;2023-02-19T17:59:20;100144.78;;;26.21;31.10
16100;BME280;8154;50.830;12.082;2023-02-19T18:01:46;100148.28;;;26.21;31.08
16100;BME280;8154;50.830;12.082;2023-02-19T18:04:12;100144.78;;;26.21;31.06
16100;BME280;8154;50.830;12.082;2023-02-19T18:06:38;100146.66;;;26.20;30.95
16100;BME280;8154;50.830;12.082;2023-02-19T19:10:17;100154.25;;;26.17;31.02
16100;BME280;8154;50.830;12.082;2023-02-19T23:14:47;100151.78;;;25.94;31.36
16100;BME280;8154;50.830;12.082;2023-02-19T23:17:14;100150.97;;;25.94;31.06
16100;BME280;8154;50.830;12.082;2023-02-19T23:19:40;100148.66;;;25.91;31.23
16100;BME280;8154;50.830;12.082;2023-02-19T23:22:06;100138.59;;;25.93;31.30
16100;BME280;8154;50.830;12.082;2023-02-19T23:24:32;100135.91;;;25.93;31.42
16100;BME280;8154;50.830;12.082;2023-02-19T23:26:59;100140.44;;;25.92;31.26
16100;BME280;8154;50.830;12.082;2023-02-19T23:29:26;100137.75;;;25.92;31.39
16100;BME280;8154;50.830;12.082;2023-02-19T23:31:53;100133.03;;;25.94;31.25
16100;BME280;8154;50.830;12.082;2023-02-19T23:34:19;100138.59;;;25.93;31.31
16100;BME280;8154;50.830;12.082;2023-02-19T23:36:48;100130.38;;;25.94;31.44
16100;BME280;8154;50.830;12.082;2023-02-19T23:39:16;100126.22;;;25.92;31.14
16100;BME280;8154;50.830;12.082;2023-02-19T23:41:51;100128.09;;;25.91;31.33
16100;BME280;8154;50.830;12.082;2023-02-19T23:44:18;100124.56;;;25.91;31.29
16100;BME280;8154;50.830;12.082;2023-02-19T23:46:44;100119.22;;;25.91;31.12
16100;BME280;8154;50.830;12.082;2023-02-19T23:49:12;100118.38;;;25.90;31.32
16100;BME280;8154;50.830;12.082;2023-02-19T23:51:38;100122.09;;;25.89;31.15
16100;BME280;8154;50.830;12.082;2023-02-19T23:54:05;100121.25;;;25.88;31.17
16100;BME280;8154;50.830;12.082;2023-02-19T23:56:31;100127.25;;;25.91;31.29
16100;BME280;8154;50.830;12.082;2023-02-19T23:58:57;100128.28;;;25.90;31.44
